首页
METAR-TAF:

METAR-TAF

机场 :

Grayling Army Airfield

Grayling, 密歇根州, 美国

纬度: 44-40-49N, 经度: 084-43-44W, 海拔: 353米

当前天气观测

该预报发布于47分钟前的20:58 UTC
风速8节,风向西北
温度 27°C
湿度 28%
气压 1007 hPa
能見度: 16.1公里
天空无云

METAR: KGOV 032058Z AUTO 32008KT 10SM CLR 27/07 A2974 RMK AO2 SLP071 T02700074 55006 $

时间: 17:45 (21:45 UTC)


TAF: 丢失

超过4000个机场的气象观测和天气预报(METAR&TAF报告)。

可查询的气象台以黄色和红色小点在地图上表示。

将鼠标移到小点上方,可查看气象台名称。

然后点击查看天气观测和预报。

如需切换地图:点击带黑十字的绿色按钮放大地图;点击带横线的绿色按钮缩小地图;或者点击绿色箭头查看邻近地区的地图。


METAR-TAF: